createdAt,value
2019-03-13T00:02:11.495Z,100286.05
2019-03-13T00:04:41.235Z,100282.34
2019-03-13T00:07:10.959Z,100282.61
2019-03-13T00:09:40.741Z,100281.56
2019-03-13T00:12:10.617Z,100291.63
2019-03-13T00:14:40.441Z,100288.94
2019-03-13T00:17:10.272Z,100294.53
2019-03-13T00:19:40.114Z,100288.96
2019-03-13T00:22:12.175Z,100291.59
2019-03-13T00:24:42.099Z,100298.23
2019-03-13T00:27:11.863Z,100293.42
2019-03-13T00:29:41.625Z,100294.77
2019-03-13T00:32:12.652Z,100285.25
2019-03-13T00:34:42.373Z,100284.71
2019-03-13T00:37:12.057Z,100286.58
2019-03-13T00:39:41.740Z,100279.43
2019-03-13T00:42:11.552Z,100291.06
2019-03-13T00:44:41.251Z,100275.44
2019-03-13T00:47:11.122Z,100295.06
2019-03-13T00:49:40.961Z,100291.60
2019-03-13T00:52:10.676Z,100297.72
2019-03-13T00:54:40.446Z,100297.45
2019-03-13T00:57:10.280Z,100297.98
2019-03-13T00:59:39.992Z,100289.00
2019-03-13T01:02:18.901Z,100288.73
2019-03-13T01:04:50.287Z,100287.16
2019-03-13T01:07:20.019Z,100287.45
2019-03-13T01:09:50.265Z,100284.52
2019-03-13T01:12:20.013Z,100279.20
2019-03-13T01:14:49.685Z,100277.35
2019-03-13T01:17:19.454Z,100279.69
2019-03-13T01:19:49.195Z,100270.44
2019-03-13T01:22:18.848Z,100287.69
2019-03-13T01:24:48.530Z,100279.44
2019-03-13T01:27:18.171Z,100288.73
2019-03-13T01:29:47.909Z,100285.03
2019-03-13T01:32:17.379Z,100281.58
2019-03-13T01:34:48.726Z,100275.75
2019-03-13T01:37:18.362Z,100270.45
2019-03-13T01:39:48.028Z,100270.19
2019-03-13T01:42:17.795Z,100264.41
2019-03-13T01:44:47.525Z,100260.96
2019-03-13T01:47:17.277Z,100252.80
2019-03-13T01:49:46.923Z,100250.41
2019-03-13T01:52:16.597Z,100241.91
2019-03-13T01:54:46.262Z,100247.48
2019-03-13T01:57:16.023Z,100248.80
2019-03-13T01:59:45.668Z,100243.77
2019-03-13T02:02:15.512Z,100251.45
2019-03-13T02:04:45.458Z,100241.11
2019-03-13T02:07:15.284Z,100232.59
2019-03-13T02:09:45.003Z,100232.38
2019-03-13T02:12:14.704Z,100233.44
2019-03-13T02:14:44.658Z,100221.53
2019-03-13T02:17:14.388Z,100225.98
2019-03-13T02:19:44.166Z,100232.09
2019-03-13T02:22:13.938Z,100224.18
2019-03-13T02:24:43.814Z,100231.57
2019-03-13T02:27:13.602Z,100227.83
2019-03-13T02:29:43.540Z,100231.30
2019-03-13T02:32:13.286Z,100233.97
2019-03-13T02:34:43.039Z,100239.80
2019-03-13T02:37:12.743Z,100230.55
2019-03-13T02:39:42.928Z,100229.21
2019-03-13T02:42:12.706Z,100237.43
2019-03-13T02:44:42.559Z,100219.69
2019-03-13T02:47:12.372Z,100229.70
2019-03-13T02:49:42.136Z,100220.50
2019-03-13T02:52:11.879Z,100217.59
2019-03-13T02:54:41.915Z,100216.77
2019-03-13T02:57:11.696Z,100216.26
2019-03-13T02:59:41.398Z,100214.69
2019-03-13T03:02:12.931Z,100220.75
2019-03-13T03:04:42.579Z,100217.56
2019-03-13T03:07:12.992Z,100220.50
2019-03-13T03:09:42.899Z,100206.73
2019-03-13T03:12:12.697Z,100209.09
2019-03-13T03:14:59.026Z,100204.65
2019-03-13T03:17:28.912Z,100199.38
2019-03-13T03:19:58.671Z,100213.91
2019-03-13T03:22:28.517Z,100205.99
2019-03-13T03:24:58.303Z,100211.05
2019-03-13T03:27:28.065Z,100201.22
2019-03-13T03:29:57.732Z,100197.55
2019-03-13T03:32:27.632Z,100193.28
2019-03-13T03:34:57.286Z,100197.52
2019-03-13T03:37:26.958Z,100192.75
2019-03-13T03:39:56.651Z,100194.90
2019-03-13T03:42:26.576Z,100199.90
2019-03-13T03:44:56.384Z,100193.03
2019-03-13T03:47:26.201Z,100201.77
2019-03-13T03:49:55.902Z,100200.70
2019-03-13T03:52:25.573Z,100203.59
2019-03-13T03:54:55.266Z,100198.33
2019-03-13T03:57:25.026Z,100211.23
2019-03-13T03:59:54.870Z,100201.16
2019-03-13T04:02:24.545Z,100214.88
2019-03-13T04:04:54.385Z,100209.33
2019-03-13T04:07:24.184Z,100206.16
2019-03-13T04:09:53.858Z,100203.74
2019-03-13T04:12:23.660Z,100202.92
2019-03-13T04:14:53.317Z,100211.11
2019-03-13T04:17:23.021Z,100200.98
2019-03-13T04:19:52.759Z,100202.31
2019-03-13T04:22:22.953Z,100204.68
2019-03-13T04:24:53.797Z,100224.59
2019-03-13T04:27:23.474Z,100217.13
2019-03-13T04:29:53.207Z,100212.38
2019-03-13T04:32:23.017Z,100204.16
2019-03-13T04:34:52.660Z,100204.96
2019-03-13T04:37:22.364Z,100200.92
2019-03-13T04:39:52.139Z,100195.91
2019-03-13T04:42:21.895Z,100185.87
2019-03-13T04:44:51.600Z,100199.39
2019-03-13T04:47:21.351Z,100192.22
2019-03-13T04:49:50.984Z,100201.73
2019-03-13T04:52:20.748Z,100194.62
2019-03-13T04:54:50.438Z,100187.44
2019-03-13T04:57:20.102Z,100186.92
2019-03-13T04:59:49.843Z,100195.70
2019-03-13T05:02:19.670Z,100201.73
2019-03-13T05:04:49.340Z,100191.94
2019-03-13T05:07:19.029Z,100196.47
2019-03-13T05:09:48.719Z,100196.73
2019-03-13T05:12:18.432Z,100189.56
2019-03-13T05:14:48.244Z,100204.38
2019-03-13T05:17:17.891Z,100199.33
2019-03-13T05:19:47.620Z,100197.27
2019-03-13T05:22:17.360Z,100189.78
2019-03-13T05:24:47.130Z,100186.89
2019-03-13T05:27:16.766Z,100179.19
2019-03-13T05:29:46.469Z,100195.05
2019-03-13T05:32:16.116Z,100184.94
2019-03-13T05:34:45.820Z,100187.59
2019-03-13T05:37:15.562Z,100191.88
2019-03-13T05:39:45.327Z,100188.95
2019-03-13T05:42:15.013Z,100180.44
2019-03-13T05:44:44.683Z,100172.81
2019-03-13T05:47:14.412Z,100169.08
2019-03-13T05:49:44.125Z,100172.73
2019-03-13T05:52:14.035Z,100186.19
2019-03-13T05:54:43.777Z,100179.05
2019-03-13T05:57:13.523Z,100178.31
2019-03-13T05:59:43.322Z,100174.62
2019-03-13T06:02:13.014Z,100179.09
2019-03-13T06:04:42.688Z,100181.77
2019-03-13T06:07:12.387Z,100170.53
2019-03-13T06:09:42.053Z,100174.47
2019-03-13T06:12:11.750Z,100184.58
2019-03-13T06:14:41.395Z,100193.65
2019-03-13T06:17:11.120Z,100189.08
2019-03-13T06:19:40.763Z,100181.94
2019-03-13T06:22:10.485Z,100179.84
2019-03-13T06:27:09.306Z,100186.64
2019-03-13T06:29:39.117Z,100174.27
2019-03-13T06:32:08.771Z,100181.90
2019-03-13T06:34:38.478Z,100172.94
2019-03-13T06:37:08.219Z,100186.23
2019-03-13T06:39:37.985Z,100185.42
2019-03-13T06:42:07.823Z,100179.05
2019-03-13T06:44:37.620Z,100177.52
2019-03-13T06:47:07.283Z,100166.08
2019-03-13T06:49:37.077Z,100191.24
2019-03-13T06:52:06.888Z,100187.06
2019-03-13T06:54:36.591Z,100187.34
2019-03-13T06:57:06.425Z,100176.54
2019-03-13T06:59:37.763Z,100168.59
2019-03-13T07:02:15.095Z,100168.11
2019-03-13T07:05:04.399Z,100159.36
2019-03-13T07:07:49.153Z,100170.75
2019-03-13T07:10:20.469Z,100164.38
2019-03-13T07:12:51.887Z,100172.56
2019-03-13T07:15:25.846Z,100167.77
2019-03-13T07:18:00.245Z,100159.29
2019-03-13T07:20:29.765Z,100160.02
2019-03-13T07:23:09.815Z,100168.77
2019-03-13T07:25:52.794Z,100167.44
2019-03-13T07:28:27.132Z,100163.47
2019-03-13T07:31:10.652Z,100181.20
2019-03-13T07:33:56.666Z,100181.17
2019-03-13T07:36:28.972Z,100176.47
2019-03-13T07:39:16.259Z,100171.20
2019-03-13T07:42:02.328Z,100169.60
2019-03-13T07:44:39.289Z,100171.45
2019-03-13T07:47:13.591Z,100170.69
2019-03-13T07:49:46.247Z,100167.69
2019-03-13T07:52:26.666Z,100167.96
2019-03-13T07:55:14.405Z,100159.25
2019-03-13T07:58:01.516Z,100159.74
2019-03-13T08:00:33.244Z,100163.82
2019-03-13T08:03:04.651Z,100161.38
2019-03-13T08:05:48.073Z,100150.47
2019-03-13T08:08:37.226Z,100160.30
2019-03-13T08:11:07.008Z,100133.77
2019-03-13T08:13:38.478Z,100138.78
2019-03-13T08:16:29.461Z,100139.83
2019-03-13T08:19:01.935Z,100131.04
2019-03-13T08:21:33.274Z,100130.66
2019-03-13T08:24:20.666Z,100134.87
2019-03-13T08:26:57.890Z,100131.89
2019-03-13T08:29:45.096Z,100127.82
2019-03-13T08:32:22.608Z,100134.77
2019-03-13T08:35:06.052Z,100133.41
2019-03-13T08:37:37.501Z,100131.89
2019-03-13T08:40:13.197Z,100141.94
2019-03-13T08:42:56.785Z,100145.42
2019-03-13T08:45:34.966Z,100145.33
2019-03-13T08:48:06.490Z,100141.63
2019-03-13T08:50:38.998Z,100132.13
2019-03-13T08:53:10.358Z,100137.91
2019-03-13T08:55:53.588Z,100136.52
2019-03-13T08:58:24.957Z,100133.34
2019-03-13T09:01:12.071Z,100133.11
2019-03-13T09:03:46.161Z,100132.88
2019-03-13T09:06:35.896Z,100137.19
2019-03-13T09:09:07.722Z,100131.66
2019-03-13T09:11:46.308Z,100111.87
2019-03-13T09:14:35.908Z,100123.23
2019-03-13T09:17:08.715Z,100130.19
2019-03-13T09:19:51.550Z,100122.42
2019-03-13T09:22:25.800Z,100124.09
2019-03-13T09:24:55.295Z,100117.98
2019-03-13T09:27:39.005Z,100122.20
2019-03-13T09:30:29.767Z,100128.30
2019-03-13T09:32:59.254Z,100127.63
2019-03-13T09:35:28.758Z,100128.91
2019-03-13T09:38:00.193Z,100122.09
2019-03-13T09:40:29.754Z,100121.61
2019-03-13T09:43:02.126Z,100114.75
2019-03-13T09:45:36.358Z,100114.55
2019-03-13T09:48:22.638Z,100123.73
2019-03-13T09:50:53.989Z,100123.88
2019-03-13T09:53:28.249Z,100112.20
2019-03-13T09:55:58.109Z,100118.27
2019-03-13T09:58:41.755Z,100114.30
2019-03-13T10:01:13.414Z,100111.31
2019-03-13T10:03:49.105Z,100114.44
2019-03-13T10:06:32.621Z,100109.64
2019-03-13T10:09:20.167Z,100107.52
2019-03-13T10:12:00.439Z,100108.45
2019-03-13T10:14:32.809Z,100109.59
2019-03-13T10:17:16.192Z,100098.46
2019-03-13T10:20:05.611Z,100097.48
2019-03-13T10:22:53.398Z,100100.38
2019-03-13T10:25:24.767Z,100102.09
2019-03-13T10:28:04.847Z,100093.20
2019-03-13T10:30:38.828Z,100096.82
2019-03-13T10:33:17.540Z,100107.03
2019-03-13T10:36:05.198Z,100102.06
2019-03-13T10:38:44.080Z,100091.45
2019-03-13T10:41:15.853Z,100094.19
2019-03-13T10:43:54.379Z,100094.89
2019-03-13T10:46:28.760Z,100083.11
2019-03-13T10:49:07.347Z,100099.91
2019-03-13T10:51:50.515Z,100083.58
2019-03-13T10:54:22.611Z,100076.36
2019-03-13T10:57:00.018Z,100093.77
2019-03-13T10:59:37.148Z,100081.92
2019-03-13T11:02:08.688Z,100084.87
2019-03-13T11:04:46.807Z,100071.80
2019-03-13T11:07:18.313Z,100070.45
2019-03-13T11:09:59.615Z,100077.99
2019-03-13T11:12:33.917Z,100073.40
2019-03-13T11:15:22.961Z,100069.70
2019-03-13T11:17:57.481Z,100075.86
2019-03-13T11:20:45.370Z,100069.97
2019-03-13T11:23:16.697Z,100082.55
2019-03-13T11:25:56.980Z,100071.30
2019-03-13T11:28:31.284Z,100073.00
2019-03-13T11:31:18.416Z,100082.48
2019-03-13T11:33:59.800Z,100074.02
2019-03-13T11:36:37.113Z,100066.35
2019-03-13T11:39:12.618Z,100074.14
2019-03-13T11:41:43.898Z,100074.16
2019-03-13T11:44:33.281Z,100054.48
2019-03-13T11:47:16.399Z,100061.80
2019-03-13T11:49:56.763Z,100056.42
2019-03-13T11:52:29.444Z,100049.83
2019-03-13T11:55:00.982Z,100041.29
2019-03-13T11:57:30.397Z,100052.78
2019-03-13T12:00:01.862Z,100025.27
2019-03-13T12:02:49.225Z,100060.69
2019-03-13T12:05:24.502Z,100033.45
2019-03-13T12:08:02.217Z,100039.23
2019-03-13T12:10:34.018Z,100043.73
2019-03-13T12:13:15.072Z,100055.73
2019-03-13T12:15:58.469Z,100061.71
2019-03-13T12:18:31.080Z,100045.57
2019-03-13T12:21:02.577Z,100046.12
2019-03-13T12:23:32.206Z,100045.48
2019-03-13T12:26:06.422Z,100038.64
2019-03-13T12:28:40.875Z,100030.53
2019-03-13T12:31:28.110Z,100032.53
2019-03-13T12:34:05.344Z,100042.98
2019-03-13T12:36:45.273Z,100021.66
2019-03-13T12:39:19.545Z,100034.19
2019-03-13T12:41:57.795Z,100031.55
2019-03-13T12:44:48.253Z,100034.84
2019-03-13T12:47:35.629Z,100042.14
2019-03-13T12:50:10.713Z,100031.75
2019-03-13T12:52:48.132Z,100025.92
2019-03-13T12:55:23.770Z,100031.75
2019-03-13T12:58:05.307Z,100039.02
2019-03-13T13:00:45.820Z,100035.51
2019-03-13T13:03:23.160Z,100033.52
2019-03-13T13:05:54.701Z,100030.50
2019-03-13T13:08:26.156Z,100024.66
2019-03-13T13:11:10.772Z,100038.68
2019-03-13T13:13:48.101Z,100032.33
2019-03-13T13:16:22.333Z,100039.15
2019-03-13T13:18:54.705Z,100025.77
2019-03-13T13:21:24.650Z,100027.41
2019-03-13T13:23:54.558Z,100018.14
2019-03-13T13:26:24.441Z,100032.78
2019-03-13T13:28:54.343Z,100022.47
2019-03-13T13:31:24.041Z,100015.86
2019-03-13T13:33:53.828Z,100004.21
2019-03-13T13:36:26.597Z,99995.88
2019-03-13T13:38:55.040Z,100001.45
2019-03-13T13:41:24.772Z,99995.72
2019-03-13T13:43:54.490Z,99993.64
2019-03-13T13:46:27.478Z,99993.06
2019-03-13T13:48:57.196Z,99987.53
2019-03-13T13:51:27.366Z,100007.38
2019-03-13T13:53:57.309Z,100012.75
2019-03-13T13:56:27.184Z,100035.39
2019-03-13T13:58:56.978Z,100025.68
2019-03-13T14:01:27.061Z,100021.73
2019-03-13T14:03:56.779Z,100025.70
2019-03-13T14:06:26.961Z,100024.91
2019-03-13T14:08:56.782Z,100027.98
2019-03-13T14:11:26.719Z,100031.66
2019-03-13T14:13:56.564Z,100038.75
2019-03-13T14:16:26.454Z,100044.28
2019-03-13T14:18:56.155Z,100031.87
2019-03-13T14:21:25.929Z,100049.20
2019-03-13T14:23:56.063Z,100047.05
2019-03-13T14:26:26.409Z,100037.77
2019-03-13T14:28:56.258Z,100040.14
2019-03-13T14:31:26.010Z,100047.55
2019-03-13T14:33:56.033Z,100030.11
2019-03-13T14:36:26.275Z,100053.67
2019-03-13T14:38:56.037Z,100069.82
2019-03-13T14:41:26.690Z,100075.11
2019-03-13T14:43:56.870Z,100083.14
2019-03-13T14:46:26.739Z,100088.42
2019-03-13T14:48:56.467Z,100109.41
2019-03-13T14:51:26.248Z,100115.08
2019-03-13T14:53:55.913Z,100111.78
2019-03-13T14:56:25.676Z,100095.13
2019-03-13T14:58:55.333Z,100090.40
2019-03-13T15:01:25.237Z,100085.80
2019-03-13T15:03:55.005Z,100099.23
2019-03-13T15:06:24.866Z,100079.74
2019-03-13T15:08:54.589Z,100087.98
2019-03-13T15:11:24.433Z,100092.55
2019-03-13T15:13:54.235Z,100091.17
2019-03-13T15:16:23.975Z,100092.55
2019-03-13T15:18:53.731Z,100091.52
2019-03-13T15:21:23.489Z,100093.41
2019-03-13T15:23:53.302Z,100096.28
2019-03-13T15:26:23.262Z,100102.86
2019-03-13T15:28:53.237Z,100096.75
2019-03-13T15:31:23.011Z,100066.98
2019-03-13T15:33:52.878Z,100089.53
2019-03-13T15:36:22.609Z,100096.50
2019-03-13T15:38:52.309Z,100092.31
2019-03-13T15:41:22.182Z,100099.58
2019-03-13T15:43:51.912Z,100084.24
2019-03-13T15:46:21.665Z,100092.90
2019-03-13T15:48:51.391Z,100094.89
2019-03-13T15:51:21.149Z,100098.34
2019-03-13T15:53:51.000Z,100094.61
2019-03-13T15:56:20.770Z,100095.41
2019-03-13T15:58:50.442Z,100091.14
2019-03-13T16:01:20.200Z,100097.44
2019-03-13T16:03:50.184Z,100105.58
2019-03-13T16:06:19.980Z,100107.22
2019-03-13T16:08:49.791Z,100109.84
2019-03-13T16:11:20.524Z,100111.41
2019-03-13T16:13:50.399Z,100113.10
2019-03-13T16:16:20.380Z,100118.92
2019-03-13T16:18:50.181Z,100110.74
2019-03-13T16:21:20.038Z,100121.43
2019-03-13T16:23:49.810Z,100138.56
2019-03-13T16:26:19.631Z,100136.25
2019-03-13T16:28:49.469Z,100131.52
2019-03-13T16:31:19.211Z,100145.56
2019-03-13T16:33:49.717Z,100155.32
2019-03-13T16:36:19.519Z,100140.31
2019-03-13T16:38:49.246Z,100143.00
2019-03-13T16:41:19.093Z,100139.55
2019-03-13T16:43:48.871Z,100139.63
2019-03-13T16:46:19.689Z,100141.95
2019-03-13T16:48:49.448Z,100144.84
2019-03-13T16:51:19.142Z,100150.19
2019-03-13T16:53:51.416Z,100158.45
2019-03-13T16:56:20.478Z,100165.03
2019-03-13T16:58:50.257Z,100157.09
2019-03-13T17:01:20.124Z,100161.30
2019-03-13T17:03:49.914Z,100159.94
2019-03-13T17:06:19.753Z,100173.91
2019-03-13T17:08:49.762Z,100180.38
2019-03-13T17:11:19.563Z,100187.27
2019-03-13T17:13:49.207Z,100182.29
2019-03-13T17:16:19.121Z,100182.33
2019-03-13T17:18:49.219Z,100188.39
2019-03-13T17:21:19.212Z,100186.82
2019-03-13T17:23:48.999Z,100196.09
2019-03-13T17:26:19.296Z,100191.56
2019-03-13T17:28:50.332Z,100205.29
2019-03-13T17:31:20.659Z,100207.91
2019-03-13T17:33:50.339Z,100205.56
2019-03-13T17:36:20.476Z,100208.50
2019-03-13T17:38:50.283Z,100217.77
2019-03-13T17:41:20.155Z,100211.64
2019-03-13T17:43:49.863Z,100208.19
2019-03-13T17:46:19.586Z,100213.73
2019-03-13T17:48:58.415Z,100219.09
2019-03-13T17:51:28.208Z,100226.73
2019-03-13T17:53:58.013Z,100228.33
2019-03-13T17:56:47.936Z,100229.13
2019-03-13T17:59:17.785Z,100241.30
2019-03-13T18:01:51.847Z,100233.63
2019-03-13T18:04:41.948Z,100237.53
2019-03-13T18:07:11.903Z,100244.44
2019-03-13T18:09:45.016Z,100249.22
2019-03-13T18:12:14.920Z,100246.59
2019-03-13T18:14:44.764Z,100257.16
2019-03-13T18:17:16.153Z,100259.74
2019-03-13T18:19:46.048Z,100267.41
2019-03-13T18:22:15.948Z,100274.87
2019-03-13T18:24:45.629Z,100279.62
2019-03-13T18:27:15.565Z,100283.03
2019-03-13T18:29:49.838Z,100294.22
2019-03-13T18:32:26.928Z,100293.70
2019-03-13T18:34:56.643Z,100302.20
2019-03-13T18:37:26.403Z,100300.05
2019-03-13T18:39:56.245Z,100310.98
2019-03-13T18:42:26.020Z,100310.72
2019-03-13T18:44:55.822Z,100320.80
2019-03-13T18:47:25.797Z,100314.67
2019-03-13T18:50:01.531Z,100323.42
2019-03-13T18:52:31.300Z,100318.42
2019-03-13T18:55:02.642Z,100324.50
2019-03-13T18:57:32.461Z,100335.87
2019-03-13T19:00:04.667Z,100348.56
2019-03-13T19:02:46.376Z,100362.36
2019-03-13T19:05:22.443Z,100359.91
2019-03-13T19:07:54.805Z,100374.52
2019-03-13T19:10:27.747Z,100375.86
2019-03-13T19:12:57.928Z,100376.95
2019-03-13T19:15:29.416Z,100387.53
2019-03-13T19:18:01.027Z,100387.30
2019-03-13T19:20:32.569Z,100382.79
2019-03-13T19:23:02.334Z,100391.03
2019-03-13T19:25:31.980Z,100388.07
2019-03-13T19:28:01.889Z,100398.72
2019-03-13T19:30:37.368Z,100415.13
2019-03-13T19:33:06.301Z,100411.40
2019-03-13T19:35:36.015Z,100416.43
2019-03-13T19:38:15.193Z,100421.75
2019-03-13T19:40:44.960Z,100426.78
2019-03-13T19:43:14.787Z,100434.75
2019-03-13T19:45:46.633Z,100433.42
2019-03-13T19:48:16.546Z,100431.59
2019-03-13T19:50:46.504Z,100436.05
2019-03-13T19:53:16.499Z,100435.80
2019-03-13T19:55:46.272Z,100433.17
2019-03-13T19:58:16.031Z,100438.20
2019-03-13T20:00:45.778Z,100452.52
2019-03-13T20:03:17.977Z,100452.23
2019-03-13T20:05:47.758Z,100458.86
2019-03-13T20:08:17.620Z,100469.98
2019-03-13T20:10:47.493Z,100472.11
2019-03-13T20:13:17.476Z,100479.25
2019-03-13T20:15:47.418Z,100488.00
2019-03-13T20:18:17.064Z,100487.98
2019-03-13T20:20:46.866Z,100483.75
2019-03-13T20:23:18.272Z,100480.86
2019-03-13T20:25:48.222Z,100490.66
2019-03-13T20:28:17.987Z,100490.10
2019-03-13T20:30:47.806Z,100495.66
2019-03-13T20:33:17.762Z,100493.55
2019-03-13T20:35:47.618Z,100497.52
2019-03-13T20:38:17.454Z,100510.22
2019-03-13T20:40:47.295Z,100510.76
2019-03-13T20:43:17.259Z,100510.76
2019-03-13T20:45:47.136Z,100510.23
2019-03-13T20:48:16.967Z,100512.08
2019-03-13T20:50:46.752Z,100522.92
2019-03-13T20:53:16.477Z,100527.45
2019-03-13T20:55:46.195Z,100535.89
2019-03-13T20:58:16.256Z,100537.22
2019-03-13T21:00:46.397Z,100531.39
2019-03-13T21:03:16.205Z,100543.84
2019-03-13T21:05:45.919Z,100542.52
2019-03-13T21:08:15.619Z,100543.84
2019-03-13T21:10:45.309Z,100537.76
2019-03-13T21:13:14.957Z,100544.38
2019-03-13T21:15:44.815Z,100550.71
2019-03-13T21:18:14.635Z,100550.99
2019-03-13T21:20:44.302Z,100549.13
2019-03-13T21:23:14.143Z,100556.00
2019-03-13T21:25:43.951Z,100564.22
2019-03-13T21:28:13.733Z,100566.85
2019-03-13T21:30:43.428Z,100565.02
2019-03-13T21:33:13.188Z,100567.13
2019-03-13T21:35:42.994Z,100571.11
2019-03-13T21:38:13.342Z,100570.82
2019-03-13T21:40:43.272Z,100579.06
2019-03-13T21:43:16.102Z,100576.13
2019-03-13T21:45:44.447Z,100578.79
2019-03-13T21:48:14.190Z,100581.19
2019-03-13T21:50:43.990Z,100585.41
2019-03-13T21:53:14.785Z,100592.83
2019-03-13T21:55:44.574Z,100588.84
2019-03-13T21:58:14.357Z,100598.62
2019-03-13T22:00:44.072Z,100608.16
2019-03-13T22:03:13.865Z,100611.58
2019-03-13T22:05:43.545Z,100613.19
2019-03-13T22:08:13.297Z,100608.94
2019-03-13T22:10:42.938Z,100615.03
2019-03-13T22:13:12.592Z,100619.50
2019-03-13T22:15:42.331Z,100623.77
2019-03-13T22:18:12.053Z,100620.03
2019-03-13T22:20:41.806Z,100630.91
2019-03-13T22:23:11.574Z,100631.71
2019-03-13T22:25:41.315Z,100630.95
2019-03-13T22:28:10.999Z,100633.30
2019-03-13T22:30:40.726Z,100640.47
2019-03-13T22:33:10.460Z,100633.55
2019-03-13T22:35:40.156Z,100636.48
2019-03-13T22:38:09.881Z,100644.94
2019-03-13T22:40:39.571Z,100646.77
2019-03-13T22:43:09.293Z,100651.30
2019-03-13T22:45:38.984Z,100657.09
2019-03-13T22:48:08.846Z,100653.41
2019-03-13T22:50:38.708Z,100650.78
2019-03-13T22:53:08.520Z,100660.55
2019-03-13T22:55:40.870Z,100660.53
2019-03-13T22:58:09.753Z,100651.81
2019-03-13T23:00:52.495Z,100664.02
2019-03-13T23:03:25.947Z,100662.95
2019-03-13T23:05:56.025Z,100670.08
2019-03-13T23:08:25.876Z,100663.20
2019-03-13T23:10:55.681Z,100665.33
2019-03-13T23:13:25.696Z,100659.23
2019-03-13T23:15:55.641Z,100663.45
2019-03-13T23:18:25.386Z,100676.94
2019-03-13T23:20:55.058Z,100688.87
2019-03-13T23:23:24.885Z,100698.40
2019-03-13T23:25:54.598Z,100709.78
2019-03-13T23:28:24.305Z,100711.16
2019-03-13T23:30:54.075Z,100704.53
2019-03-13T23:33:23.871Z,100711.43
2019-03-13T23:35:53.692Z,100712.27
2019-03-13T23:38:23.491Z,100711.45
2019-03-13T23:40:53.135Z,100713.31
2019-03-13T23:43:22.976Z,100716.77
2019-03-13T23:45:52.638Z,100726.55
2019-03-13T23:48:22.281Z,100723.89
2019-03-13T23:50:51.983Z,100722.09
2019-03-13T23:53:21.658Z,100723.38
2019-03-13T23:55:51.379Z,100716.45
2019-03-13T23:58:21.153Z,100721.75
